sensor_id;sensor_type;location;lat;lon;timestamp;P1;durP1;ratioP1;P2;durP2;ratioP2
64653;SDS011;51065;48.884;12.598;2024-02-28T00:01:31;22.63;;;10.35;;
64653;SDS011;51065;48.884;12.598;2024-02-28T00:03:56;21.92;;;10.13;;
64653;SDS011;51065;48.884;12.598;2024-02-28T00:06:22;22.88;;;9.98;;
64653;SDS011;51065;48.884;12.598;2024-02-28T00:08:47;22.60;;;9.07;;
64653;SDS011;51065;48.884;12.598;2024-02-28T00:11:15;21.98;;;10.75;;
64653;SDS011;51065;48.884;12.598;2024-02-28T00:13:41;24.38;;;10.43;;
64653;SDS011;51065;48.884;12.598;2024-02-28T00:16:07;24.48;;;10.23;;
64653;SDS011;51065;48.884;12.598;2024-02-28T00:18:32;23.38;;;11.23;;
64653;SDS011;51065;48.884;12.598;2024-02-28T00:20:58;22.13;;;10.55;;
64653;SDS011;51065;48.884;12.598;2024-02-28T00:23:26;24.88;;;10.45;;
64653;SDS011;51065;48.884;12.598;2024-02-28T00:25:52;22.30;;;10.65;;
64653;SDS011;51065;48.884;12.598;2024-02-28T00:28:17;23.27;;;10.18;;
64653;SDS011;51065;48.884;12.598;2024-02-28T00:30:44;22.90;;;10.40;;
64653;SDS011;51065;48.884;12.598;2024-02-28T00:33:09;23.95;;;10.52;;
64653;SDS011;51065;48.884;12.598;2024-02-28T00:35:35;27.38;;;11.43;;
64653;SDS011;51065;48.884;12.598;2024-02-28T00:38:01;24.33;;;11.17;;
64653;SDS011;51065;48.884;12.598;2024-02-28T00:40:26;24.55;;;10.75;;
64653;SDS011;51065;48.884;12.598;2024-02-28T00:42:53;23.25;;;10.32;;
64653;SDS011;51065;48.884;12.598;2024-02-28T00:45:19;23.05;;;10.15;;
64653;SDS011;51065;48.884;12.598;2024-02-28T00:47:44;24.13;;;10.85;;
64653;SDS011;51065;48.884;12.598;2024-02-28T00:50:10;22.30;;;11.02;;
64653;SDS011;51065;48.884;12.598;2024-02-28T00:52:36;23.00;;;10.85;;
64653;SDS011;51065;48.884;12.598;2024-02-28T00:55:02;24.80;;;10.98;;
64653;SDS011;51065;48.884;12.598;2024-02-28T00:57:29;24.70;;;10.00;;
64653;SDS011;51065;48.884;12.598;2024-02-28T00:59:55;22.48;;;9.70;;
64653;SDS011;51065;48.884;12.598;2024-02-28T01:02:21;21.60;;;10.48;;
64653;SDS011;51065;48.884;12.598;2024-02-28T01:04:47;23.42;;;10.70;;
64653;SDS011;51065;48.884;12.598;2024-02-28T01:07:12;25.85;;;10.23;;
64653;SDS011;51065;48.884;12.598;2024-02-28T01:09:38;26.30;;;9.55;;
64653;SDS011;51065;48.884;12.598;2024-02-28T01:12:03;24.98;;;10.30;;
64653;SDS011;51065;48.884;12.598;2024-02-28T01:14:29;23.67;;;10.60;;
64653;SDS011;51065;48.884;12.598;2024-02-28T01:16:54;21.75;;;10.68;;
64653;SDS011;51065;48.884;12.598;2024-02-28T01:19:20;25.13;;;11.05;;
64653;SDS011;51065;48.884;12.598;2024-02-28T01:21:45;23.38;;;11.43;;
64653;SDS011;51065;48.884;12.598;2024-02-28T01:24:11;26.00;;;10.98;;
64653;SDS011;51065;48.884;12.598;2024-02-28T01:26:37;25.48;;;10.55;;
64653;SDS011;51065;48.884;12.598;2024-02-28T01:29:02;25.05;;;10.90;;
64653;SDS011;51065;48.884;12.598;2024-02-28T01:31:28;24.38;;;11.35;;
64653;SDS011;51065;48.884;12.598;2024-02-28T01:33:53;23.63;;;10.68;;
64653;SDS011;51065;48.884;12.598;2024-02-28T01:36:20;24.40;;;10.57;;
64653;SDS011;51065;48.884;12.598;2024-02-28T01:38:46;25.88;;;11.50;;
64653;SDS011;51065;48.884;12.598;2024-02-28T01:41:11;23.85;;;10.98;;
64653;SDS011;51065;48.884;12.598;2024-02-28T01:43:37;24.70;;;11.70;;
64653;SDS011;51065;48.884;12.598;2024-02-28T01:46:04;23.23;;;10.50;;
64653;SDS011;51065;48.884;12.598;2024-02-28T01:48:46;23.70;;;10.93;;
64653;SDS011;51065;48.884;12.598;2024-02-28T01:51:12;23.85;;;12.15;;
64653;SDS011;51065;48.884;12.598;2024-02-28T01:53:38;23.60;;;11.27;;
64653;SDS011;51065;48.884;12.598;2024-02-28T01:56:03;22.85;;;10.70;;
64653;SDS011;51065;48.884;12.598;2024-02-28T01:58:29;22.88;;;10.90;;
64653;SDS011;51065;48.884;12.598;2024-02-28T02:00:55;25.13;;;10.45;;
64653;SDS011;51065;48.884;12.598;2024-02-28T02:03:22;26.83;;;12.18;;
64653;SDS011;51065;48.884;12.598;2024-02-28T02:05:47;24.52;;;11.00;;
64653;SDS011;51065;48.884;12.598;2024-02-28T02:08:13;27.50;;;11.15;;
64653;SDS011;51065;48.884;12.598;2024-02-28T02:10:39;24.38;;;10.63;;
64653;SDS011;51065;48.884;12.598;2024-02-28T02:13:05;26.33;;;11.80;;
64653;SDS011;51065;48.884;12.598;2024-02-28T02:15:31;25.20;;;11.20;;
64653;SDS011;51065;48.884;12.598;2024-02-28T02:17:56;25.95;;;12.23;;
64653;SDS011;51065;48.884;12.598;2024-02-28T02:20:22;24.52;;;10.50;;
64653;SDS011;51065;48.884;12.598;2024-02-28T02:22:49;25.50;;;12.07;;
64653;SDS011;51065;48.884;12.598;2024-02-28T02:25:14;26.35;;;12.35;;
64653;SDS011;51065;48.884;12.598;2024-02-28T02:27:40;21.98;;;10.82;;
64653;SDS011;51065;48.884;12.598;2024-02-28T02:30:05;23.80;;;10.57;;
64653;SDS011;51065;48.884;12.598;2024-02-28T02:32:31;25.45;;;11.75;;
64653;SDS011;51065;48.884;12.598;2024-02-28T02:34:57;24.02;;;11.32;;
64653;SDS011;51065;48.884;12.598;2024-02-28T02:37:22;26.10;;;12.23;;
64653;SDS011;51065;48.884;12.598;2024-02-28T02:39:48;25.42;;;11.90;;
64653;SDS011;51065;48.884;12.598;2024-02-28T02:42:14;25.52;;;11.40;;
64653;SDS011;51065;48.884;12.598;2024-02-28T02:44:40;25.55;;;10.73;;
64653;SDS011;51065;48.884;12.598;2024-02-28T02:47:05;23.65;;;10.52;;
64653;SDS011;51065;48.884;12.598;2024-02-28T02:49:31;21.08;;;10.40;;
64653;SDS011;51065;48.884;12.598;2024-02-28T02:51:56;26.67;;;11.68;;
64653;SDS011;51065;48.884;12.598;2024-02-28T02:54:22;21.30;;;11.25;;
64653;SDS011;51065;48.884;12.598;2024-02-28T02:56:47;24.38;;;11.00;;
64653;SDS011;51065;48.884;12.598;2024-02-28T02:59:13;24.88;;;10.90;;
64653;SDS011;51065;48.884;12.598;2024-02-28T03:01:39;23.58;;;11.00;;
64653;SDS011;51065;48.884;12.598;2024-02-28T03:04:05;28.73;;;11.13;;
64653;SDS011;51065;48.884;12.598;2024-02-28T03:06:30;25.88;;;10.63;;
64653;SDS011;51065;48.884;12.598;2024-02-28T03:08:57;26.35;;;11.07;;
64653;SDS011;51065;48.884;12.598;2024-02-28T03:11:23;21.85;;;10.73;;
64653;SDS011;51065;48.884;12.598;2024-02-28T03:13:48;24.02;;;9.77;;
64653;SDS011;51065;48.884;12.598;2024-02-28T03:16:14;21.02;;;10.07;;
64653;SDS011;51065;48.884;12.598;2024-02-28T03:18:39;24.13;;;9.88;;
64653;SDS011;51065;48.884;12.598;2024-02-28T03:21:05;24.65;;;10.90;;
64653;SDS011;51065;48.884;12.598;2024-02-28T03:23:31;23.92;;;9.90;;
64653;SDS011;51065;48.884;12.598;2024-02-28T03:25:57;24.38;;;10.40;;
64653;SDS011;51065;48.884;12.598;2024-02-28T03:28:23;26.23;;;11.70;;
64653;SDS011;51065;48.884;12.598;2024-02-28T03:30:49;23.17;;;10.15;;
64653;SDS011;51065;48.884;12.598;2024-02-28T03:33:15;25.77;;;10.35;;
64653;SDS011;51065;48.884;12.598;2024-02-28T03:35:40;24.83;;;11.43;;
64653;SDS011;51065;48.884;12.598;2024-02-28T03:38:06;20.55;;;8.82;;
64653;SDS011;51065;48.884;12.598;2024-02-28T03:40:31;19.60;;;8.57;;
64653;SDS011;51065;48.884;12.598;2024-02-28T03:42:57;20.85;;;9.30;;
64653;SDS011;51065;48.884;12.598;2024-02-28T03:45:26;19.15;;;8.88;;
64653;SDS011;51065;48.884;12.598;2024-02-28T03:47:52;18.92;;;9.25;;
64653;SDS011;51065;48.884;12.598;2024-02-28T03:50:18;19.92;;;9.48;;
64653;SDS011;51065;48.884;12.598;2024-02-28T03:52:44;18.33;;;7.90;;
64653;SDS011;51065;48.884;12.598;2024-02-28T03:55:09;19.33;;;8.05;;
64653;SDS011;51065;48.884;12.598;2024-02-28T03:57:35;21.35;;;8.90;;
64653;SDS011;51065;48.884;12.598;2024-02-28T04:00:01;16.55;;;7.50;;
64653;SDS011;51065;48.884;12.598;2024-02-28T04:02:27;16.98;;;7.90;;
64653;SDS011;51065;48.884;12.598;2024-02-28T04:04:53;20.00;;;8.15;;
64653;SDS011;51065;48.884;12.598;2024-02-28T04:07:18;18.63;;;8.35;;
64653;SDS011;51065;48.884;12.598;2024-02-28T04:09:44;17.40;;;7.40;;
64653;SDS011;51065;48.884;12.598;2024-02-28T04:12:10;20.45;;;8.70;;
64653;SDS011;51065;48.884;12.598;2024-02-28T04:14:37;16.85;;;7.90;;
64653;SDS011;51065;48.884;12.598;2024-02-28T04:17:03;17.13;;;7.82;;
64653;SDS011;51065;48.884;12.598;2024-02-28T04:19:32;18.80;;;7.53;;
64653;SDS011;51065;48.884;12.598;2024-02-28T04:21:58;18.02;;;8.70;;
64653;SDS011;51065;48.884;12.598;2024-02-28T04:24:24;17.83;;;7.72;;
64653;SDS011;51065;48.884;12.598;2024-02-28T04:26:50;18.90;;;8.80;;
64653;SDS011;51065;48.884;12.598;2024-02-28T04:29:18;17.15;;;7.95;;
64653;SDS011;51065;48.884;12.598;2024-02-28T04:31:44;18.25;;;7.78;;
64653;SDS011;51065;48.884;12.598;2024-02-28T04:34:10;16.63;;;7.13;;
64653;SDS011;51065;48.884;12.598;2024-02-28T04:36:35;16.13;;;7.75;;
64653;SDS011;51065;48.884;12.598;2024-02-28T04:39:01;16.02;;;7.05;;
64653;SDS011;51065;48.884;12.598;2024-02-28T04:41:27;19.20;;;7.47;;
64653;SDS011;51065;48.884;12.598;2024-02-28T04:43:53;18.65;;;8.48;;
64653;SDS011;51065;48.884;12.598;2024-02-28T04:46:19;18.95;;;8.25;;
64653;SDS011;51065;48.884;12.598;2024-02-28T04:48:47;16.05;;;7.32;;
64653;SDS011;51065;48.884;12.598;2024-02-28T04:51:15;16.50;;;7.15;;
64653;SDS011;51065;48.884;12.598;2024-02-28T04:53:42;14.25;;;6.90;;
64653;SDS011;51065;48.884;12.598;2024-02-28T04:56:08;18.00;;;8.25;;
64653;SDS011;51065;48.884;12.598;2024-02-28T04:58:33;16.58;;;7.80;;
64653;SDS011;51065;48.884;12.598;2024-02-28T05:01:00;16.98;;;7.85;;
64653;SDS011;51065;48.884;12.598;2024-02-28T05:03:25;17.23;;;7.78;;
64653;SDS011;51065;48.884;12.598;2024-02-28T05:05:51;17.52;;;7.75;;
64653;SDS011;51065;48.884;12.598;2024-02-28T05:08:19;19.50;;;8.32;;
64653;SDS011;51065;48.884;12.598;2024-02-28T05:10:45;18.00;;;8.00;;
64653;SDS011;51065;48.884;12.598;2024-02-28T05:13:10;17.95;;;8.55;;
64653;SDS011;51065;48.884;12.598;2024-02-28T05:15:36;18.20;;;8.65;;
64653;SDS011;51065;48.884;12.598;2024-02-28T05:18:01;20.85;;;9.05;;
64653;SDS011;51065;48.884;12.598;2024-02-28T05:20:27;19.98;;;7.75;;
64653;SDS011;51065;48.884;12.598;2024-02-28T05:22:53;19.05;;;8.00;;
64653;SDS011;51065;48.884;12.598;2024-02-28T05:25:18;18.80;;;7.32;;
64653;SDS011;51065;48.884;12.598;2024-02-28T05:27:44;17.42;;;7.65;;
64653;SDS011;51065;48.884;12.598;2024-02-28T05:30:10;16.08;;;7.57;;
64653;SDS011;51065;48.884;12.598;2024-02-28T05:32:36;15.35;;;7.45;;
64653;SDS011;51065;48.884;12.598;2024-02-28T05:35:01;16.73;;;7.05;;
64653;SDS011;51065;48.884;12.598;2024-02-28T05:37:27;18.58;;;6.97;;
64653;SDS011;51065;48.884;12.598;2024-02-28T05:39:52;17.55;;;7.68;;
64653;SDS011;51065;48.884;12.598;2024-02-28T05:42:18;15.45;;;7.78;;
64653;SDS011;51065;48.884;12.598;2024-02-28T05:44:47;16.10;;;7.05;;
64653;SDS011;51065;48.884;12.598;2024-02-28T05:47:13;16.52;;;6.60;;
64653;SDS011;51065;48.884;12.598;2024-02-28T05:49:39;15.27;;;7.38;;
64653;SDS011;51065;48.884;12.598;2024-02-28T05:52:05;14.25;;;6.47;;
64653;SDS011;51065;48.884;12.598;2024-02-28T05:54:30;14.90;;;6.78;;
64653;SDS011;51065;48.884;12.598;2024-02-28T05:56:56;14.30;;;6.13;;
64653;SDS011;51065;48.884;12.598;2024-02-28T05:59:21;13.88;;;6.35;;
64653;SDS011;51065;48.884;12.598;2024-02-28T06:01:47;15.63;;;6.78;;
64653;SDS011;51065;48.884;12.598;2024-02-28T06:04:12;16.13;;;7.32;;
64653;SDS011;51065;48.884;12.598;2024-02-28T06:06:38;15.00;;;6.50;;
64653;SDS011;51065;48.884;12.598;2024-02-28T06:09:04;15.63;;;7.22;;
64653;SDS011;51065;48.884;12.598;2024-02-28T06:11:31;18.17;;;7.88;;
64653;SDS011;51065;48.884;12.598;2024-02-28T06:13:58;15.57;;;7.63;;
64653;SDS011;51065;48.884;12.598;2024-02-28T06:16:24;15.75;;;7.45;;
64653;SDS011;51065;48.884;12.598;2024-02-28T06:18:49;16.70;;;7.47;;
64653;SDS011;51065;48.884;12.598;2024-02-28T06:21:15;15.05;;;7.68;;
64653;SDS011;51065;48.884;12.598;2024-02-28T06:23:41;15.65;;;7.10;;
64653;SDS011;51065;48.884;12.598;2024-02-28T06:26:07;18.80;;;8.05;;
64653;SDS011;51065;48.884;12.598;2024-02-28T06:28:39;19.75;;;10.13;;
64653;SDS011;51065;48.884;12.598;2024-02-28T06:31:11;21.48;;;11.45;;
64653;SDS011;51065;48.884;12.598;2024-02-28T06:36:03;21.20;;;10.05;;
64653;SDS011;51065;48.884;12.598;2024-02-28T06:38:29;19.30;;;9.85;;
64653;SDS011;51065;48.884;12.598;2024-02-28T06:40:54;19.00;;;9.60;;
64653;SDS011;51065;48.884;12.598;2024-02-28T06:43:20;18.38;;;8.60;;
64653;SDS011;51065;48.884;12.598;2024-02-28T06:45:46;16.98;;;8.27;;
64653;SDS011;51065;48.884;12.598;2024-02-28T06:48:12;18.02;;;8.38;;
64653;SDS011;51065;48.884;12.598;2024-02-28T06:50:37;21.48;;;9.27;;
64653;SDS011;51065;48.884;12.598;2024-02-28T06:53:03;19.75;;;8.45;;
64653;SDS011;51065;48.884;12.598;2024-02-28T06:55:28;15.40;;;7.47;;
64653;SDS011;51065;48.884;12.598;2024-02-28T06:57:54;16.92;;;7.50;;
64653;SDS011;51065;48.884;12.598;2024-02-28T07:00:21;14.65;;;7.13;;
64653;SDS011;51065;48.884;12.598;2024-02-28T07:02:47;16.30;;;7.10;;
64653;SDS011;51065;48.884;12.598;2024-02-28T07:05:12;14.73;;;7.38;;
64653;SDS011;51065;48.884;12.598;2024-02-28T07:07:38;16.45;;;7.70;;
64653;SDS011;51065;48.884;12.598;2024-02-28T07:10:04;17.25;;;7.57;;
64653;SDS011;51065;48.884;12.598;2024-02-28T07:12:30;16.73;;;7.25;;
64653;SDS011;51065;48.884;12.598;2024-02-28T07:14:56;17.42;;;7.35;;
64653;SDS011;51065;48.884;12.598;2024-02-28T07:17:22;17.73;;;7.68;;
64653;SDS011;51065;48.884;12.598;2024-02-28T07:19:48;17.90;;;7.65;;
64653;SDS011;51065;48.884;12.598;2024-02-28T07:22:13;17.17;;;7.90;;
64653;SDS011;51065;48.884;12.598;2024-02-28T07:24:39;19.13;;;7.80;;
64653;SDS011;51065;48.884;12.598;2024-02-28T07:27:04;14.05;;;6.60;;
64653;SDS011;51065;48.884;12.598;2024-02-28T07:29:30;17.55;;;8.15;;
64653;SDS011;51065;48.884;12.598;2024-02-28T07:31:56;16.52;;;7.15;;
64653;SDS011;51065;48.884;12.598;2024-02-28T07:34:21;15.48;;;6.55;;
64653;SDS011;51065;48.884;12.598;2024-02-28T07:36:47;14.82;;;6.90;;
64653;SDS011;51065;48.884;12.598;2024-02-28T07:39:13;15.25;;;6.97;;
64653;SDS011;51065;48.884;12.598;2024-02-28T07:41:38;17.60;;;7.50;;
64653;SDS011;51065;48.884;12.598;2024-02-28T07:44:05;14.13;;;6.50;;
64653;SDS011;51065;48.884;12.598;2024-02-28T07:46:32;15.93;;;7.35;;
64653;SDS011;51065;48.884;12.598;2024-02-28T07:48:57;15.68;;;6.13;;
64653;SDS011;51065;48.884;12.598;2024-02-28T07:51:23;16.85;;;7.07;;
64653;SDS011;51065;48.884;12.598;2024-02-28T07:53:49;15.90;;;7.07;;
64653;SDS011;51065;48.884;12.598;2024-02-28T07:56:17;17.05;;;6.82;;
64653;SDS011;51065;48.884;12.598;2024-02-28T07:58:44;15.55;;;7.32;;
64653;SDS011;51065;48.884;12.598;2024-02-28T08:01:10;15.60;;;7.55;;
64653;SDS011;51065;48.884;12.598;2024-02-28T08:03:36;16.65;;;7.28;;
64653;SDS011;51065;48.884;12.598;2024-02-28T08:06:02;15.90;;;7.40;;
64653;SDS011;51065;48.884;12.598;2024-02-28T08:08:28;17.70;;;7.72;;
64653;SDS011;51065;48.884;12.598;2024-02-28T08:10:53;18.50;;;8.52;;
64653;SDS011;51065;48.884;12.598;2024-02-28T08:13:19;17.95;;;8.23;;
64653;SDS011;51065;48.884;12.598;2024-02-28T08:15:45;15.98;;;7.50;;
64653;SDS011;51065;48.884;12.598;2024-02-28T08:18:11;16.67;;;8.43;;
64653;SDS011;51065;48.884;12.598;2024-02-28T08:20:37;17.60;;;7.47;;
64653;SDS011;51065;48.884;12.598;2024-02-28T08:23:03;14.32;;;6.80;;
64653;SDS011;51065;48.884;12.598;2024-02-28T08:25:29;20.52;;;7.93;;
64653;SDS011;51065;48.884;12.598;2024-02-28T08:27:55;18.60;;;7.82;;
64653;SDS011;51065;48.884;12.598;2024-02-28T08:30:21;16.33;;;7.45;;
64653;SDS011;51065;48.884;12.598;2024-02-28T08:32:47;17.63;;;7.32;;
64653;SDS011;51065;48.884;12.598;2024-02-28T08:35:12;17.50;;;7.85;;
64653;SDS011;51065;48.884;12.598;2024-02-28T08:37:38;17.55;;;7.90;;
64653;SDS011;51065;48.884;12.598;2024-02-28T08:40:04;15.07;;;7.28;;
64653;SDS011;51065;48.884;12.598;2024-02-28T08:42:32;18.23;;;8.13;;
64653;SDS011;51065;48.884;12.598;2024-02-28T08:44:57;15.90;;;7.32;;
64653;SDS011;51065;48.884;12.598;2024-02-28T08:47:25;20.23;;;8.25;;
64653;SDS011;51065;48.884;12.598;2024-02-28T08:49:51;16.05;;;7.60;;
64653;SDS011;51065;48.884;12.598;2024-02-28T08:52:17;15.52;;;7.28;;
64653;SDS011;51065;48.884;12.598;2024-02-28T08:54:43;16.75;;;8.02;;
64653;SDS011;51065;48.884;12.598;2024-02-28T08:57:08;17.92;;;8.02;;
64653;SDS011;51065;48.884;12.598;2024-02-28T08:59:34;17.42;;;8.07;;
64653;SDS011;51065;48.884;12.598;2024-02-28T09:01:59;18.08;;;8.27;;
64653;SDS011;51065;48.884;12.598;2024-02-28T09:04:25;17.63;;;8.38;;
64653;SDS011;51065;48.884;12.598;2024-02-28T09:06:50;18.75;;;7.95;;
64653;SDS011;51065;48.884;12.598;2024-02-28T09:09:18;18.88;;;8.50;;
64653;SDS011;51065;48.884;12.598;2024-02-28T09:11:43;18.73;;;8.15;;
64653;SDS011;51065;48.884;12.598;2024-02-28T09:14:09;20.17;;;8.60;;
64653;SDS011;51065;48.884;12.598;2024-02-28T09:16:34;17.98;;;8.98;;
64653;SDS011;51065;48.884;12.598;2024-02-28T09:19:00;17.30;;;7.68;;
64653;SDS011;51065;48.884;12.598;2024-02-28T09:21:26;19.50;;;8.52;;
64653;SDS011;51065;48.884;12.598;2024-02-28T09:23:51;17.95;;;8.35;;
64653;SDS011;51065;48.884;12.598;2024-02-28T09:26:17;16.63;;;8.35;;
64653;SDS011;51065;48.884;12.598;2024-02-28T09:28:43;19.13;;;8.23;;
64653;SDS011;51065;48.884;12.598;2024-02-28T09:31:08;20.58;;;7.90;;
64653;SDS011;51065;48.884;12.598;2024-02-28T09:33:34;20.45;;;8.85;;
64653;SDS011;51065;48.884;12.598;2024-02-28T09:36:01;16.58;;;7.45;;
64653;SDS011;51065;48.884;12.598;2024-02-28T09:38:28;19.20;;;8.07;;
64653;SDS011;51065;48.884;12.598;2024-02-28T09:40:54;18.00;;;8.25;;
64653;SDS011;51065;48.884;12.598;2024-02-28T09:43:28;18.73;;;7.85;;
64653;SDS011;51065;48.884;12.598;2024-02-28T09:46:04;18.88;;;8.48;;
64653;SDS011;51065;48.884;12.598;2024-02-28T09:48:31;16.50;;;7.75;;
64653;SDS011;51065;48.884;12.598;2024-02-28T09:50:56;16.98;;;7.50;;
64653;SDS011;51065;48.884;12.598;2024-02-28T09:53:23;16.92;;;7.63;;
64653;SDS011;51065;48.884;12.598;2024-02-28T09:55:52;18.88;;;8.05;;
64653;SDS011;51065;48.884;12.598;2024-02-28T09:58:18;19.23;;;7.50;;
64653;SDS011;51065;48.884;12.598;2024-02-28T10:00:46;16.60;;;7.28;;
64653;SDS011;51065;48.884;12.598;2024-02-28T10:03:13;19.00;;;8.30;;
64653;SDS011;51065;48.884;12.598;2024-02-28T10:05:42;17.02;;;7.90;;
64653;SDS011;51065;48.884;12.598;2024-02-28T10:08:08;17.85;;;7.72;;
64653;SDS011;51065;48.884;12.598;2024-02-28T10:10:36;17.60;;;8.05;;
64653;SDS011;51065;48.884;12.598;2024-02-28T10:13:03;17.45;;;7.60;;
64653;SDS011;51065;48.884;12.598;2024-02-28T10:15:28;16.85;;;7.63;;
64653;SDS011;51065;48.884;12.598;2024-02-28T10:17:55;17.98;;;8.05;;
64653;SDS011;51065;48.884;12.598;2024-02-28T10:20:20;16.67;;;7.53;;
64653;SDS011;51065;48.884;12.598;2024-02-28T10:22:46;16.90;;;7.25;;
64653;SDS011;51065;48.884;12.598;2024-02-28T10:25:11;17.08;;;7.10;;
64653;SDS011;51065;48.884;12.598;2024-02-28T10:27:38;19.67;;;7.28;;
64653;SDS011;51065;48.884;12.598;2024-02-28T10:30:04;16.63;;;7.60;;
64653;SDS011;51065;48.884;12.598;2024-02-28T10:32:33;15.35;;;6.80;;
64653;SDS011;51065;48.884;12.598;2024-02-28T10:35:00;19.63;;;7.63;;
64653;SDS011;51065;48.884;12.598;2024-02-28T10:37:27;18.60;;;7.25;;
64653;SDS011;51065;48.884;12.598;2024-02-28T10:39:55;15.05;;;7.10;;
64653;SDS011;51065;48.884;12.598;2024-02-28T10:42:23;14.82;;;7.05;;
64653;SDS011;51065;48.884;12.598;2024-02-28T10:44:51;16.23;;;7.50;;
64653;SDS011;51065;48.884;12.598;2024-02-28T10:47:18;18.40;;;6.95;;
64653;SDS011;51065;48.884;12.598;2024-02-28T10:49:44;18.95;;;6.90;;
64653;SDS011;51065;48.884;12.598;2024-02-28T10:52:13;17.75;;;7.75;;
64653;SDS011;51065;48.884;12.598;2024-02-28T10:54:40;16.53;;;7.57;;
64653;SDS011;51065;48.884;12.598;2024-02-28T10:57:07;16.02;;;7.13;;
64653;SDS011;51065;48.884;12.598;2024-02-28T10:59:36;18.33;;;7.28;;
64653;SDS011;51065;48.884;12.598;2024-02-28T11:02:04;17.15;;;6.60;;
64653;SDS011;51065;48.884;12.598;2024-02-28T11:04:31;15.13;;;6.68;;
64653;SDS011;51065;48.884;12.598;2024-02-28T11:06:56;14.07;;;6.50;;
64653;SDS011;51065;48.884;12.598;2024-02-28T11:09:22;16.45;;;6.78;;
64653;SDS011;51065;48.884;12.598;2024-02-28T11:11:50;15.50;;;6.47;;
64653;SDS011;51065;48.884;12.598;2024-02-28T11:14:16;14.70;;;6.43;;
64653;SDS011;51065;48.884;12.598;2024-02-28T11:16:42;15.93;;;6.80;;
64653;SDS011;51065;48.884;12.598;2024-02-28T11:19:18;18.70;;;7.18;;
64653;SDS011;51065;48.884;12.598;2024-02-28T11:21:51;18.08;;;6.60;;
64653;SDS011;51065;48.884;12.598;2024-02-28T11:24:22;16.42;;;6.53;;
64653;SDS011;51065;48.884;12.598;2024-02-28T11:26:48;15.50;;;6.68;;
64653;SDS011;51065;48.884;12.598;2024-02-28T11:29:15;15.82;;;6.30;;
64653;SDS011;51065;48.884;12.598;2024-02-28T11:31:41;17.38;;;6.22;;
64653;SDS011;51065;48.884;12.598;2024-02-28T11:34:07;15.18;;;6.85;;
64653;SDS011;51065;48.884;12.598;2024-02-28T11:36:33;14.75;;;5.95;;
64653;SDS011;51065;48.884;12.598;2024-02-28T11:38:59;15.35;;;6.07;;
64653;SDS011;51065;48.884;12.598;2024-02-28T11:41:26;13.13;;;6.38;;
64653;SDS011;51065;48.884;12.598;2024-02-28T11:43:54;15.50;;;6.25;;
64653;SDS011;51065;48.884;12.598;2024-02-28T11:46:20;14.70;;;6.07;;
64653;SDS011;51065;48.884;12.598;2024-02-28T11:48:45;15.88;;;6.30;;
64653;SDS011;51065;48.884;12.598;2024-02-28T11:51:11;17.17;;;6.70;;
64653;SDS011;51065;48.884;12.598;2024-02-28T11:53:37;14.98;;;6.13;;
64653;SDS011;51065;48.884;12.598;2024-02-28T11:56:02;15.85;;;6.60;;
64653;SDS011;51065;48.884;12.598;2024-02-28T11:58:28;14.65;;;5.90;;
64653;SDS011;51065;48.884;12.598;2024-02-28T12:00:54;16.67;;;6.45;;
64653;SDS011;51065;48.884;12.598;2024-02-28T12:03:20;15.48;;;6.28;;
64653;SDS011;51065;48.884;12.598;2024-02-28T12:05:49;14.38;;;5.93;;
64653;SDS011;51065;48.884;12.598;2024-02-28T12:08:19;16.20;;;6.63;;
64653;SDS011;51065;48.884;12.598;2024-02-28T12:10:47;15.98;;;6.90;;
64653;SDS011;51065;48.884;12.598;2024-02-28T12:13:17;13.00;;;5.68;;
64653;SDS011;51065;48.884;12.598;2024-02-28T12:15:42;16.35;;;6.32;;
64653;SDS011;51065;48.884;12.598;2024-02-28T12:18:08;17.25;;;5.97;;
64653;SDS011;51065;48.884;12.598;2024-02-28T12:20:37;16.00;;;6.38;;
64653;SDS011;51065;48.884;12.598;2024-02-28T12:23:06;15.63;;;6.15;;
64653;SDS011;51065;48.884;12.598;2024-02-28T12:25:33;16.63;;;6.72;;
64653;SDS011;51065;48.884;12.598;2024-02-28T12:27:59;16.95;;;6.78;;
64653;SDS011;51065;48.884;12.598;2024-02-28T12:30:26;18.77;;;6.70;;
64653;SDS011;51065;48.884;12.598;2024-02-28T12:32:52;15.70;;;7.07;;
64653;SDS011;51065;48.884;12.598;2024-02-28T12:35:17;14.07;;;6.45;;
64653;SDS011;51065;48.884;12.598;2024-02-28T12:37:43;15.20;;;6.18;;
64653;SDS011;51065;48.884;12.598;2024-02-28T12:40:08;15.73;;;7.07;;
64653;SDS011;51065;48.884;12.598;2024-02-28T12:42:35;15.23;;;5.93;;
64653;SDS011;51065;48.884;12.598;2024-02-28T12:45:01;14.63;;;5.93;;
64653;SDS011;51065;48.884;12.598;2024-02-28T12:47:27;16.27;;;6.50;;
64653;SDS011;51065;48.884;12.598;2024-02-28T12:49:55;15.27;;;6.13;;
64653;SDS011;51065;48.884;12.598;2024-02-28T12:52:21;17.00;;;7.15;;
64653;SDS011;51065;48.884;12.598;2024-02-28T12:54:46;21.35;;;7.38;;
64653;SDS011;51065;48.884;12.598;2024-02-28T12:57:12;16.90;;;7.00;;
64653;SDS011;51065;48.884;12.598;2024-02-28T12:59:41;17.92;;;6.88;;
64653;SDS011;51065;48.884;12.598;2024-02-28T13:02:07;15.90;;;7.10;;
64653;SDS011;51065;48.884;12.598;2024-02-28T13:04:34;16.88;;;6.90;;
64653;SDS011;51065;48.884;12.598;2024-02-28T13:07:00;15.38;;;6.38;;
64653;SDS011;51065;48.884;12.598;2024-02-28T13:09:25;16.35;;;6.63;;
64653;SDS011;51065;48.884;12.598;2024-02-28T13:11:51;16.10;;;6.40;;
64653;SDS011;51065;48.884;12.598;2024-02-28T13:14:17;15.88;;;6.22;;
64653;SDS011;51065;48.884;12.598;2024-02-28T13:16:42;12.82;;;5.88;;
64653;SDS011;51065;48.884;12.598;2024-02-28T13:19:09;16.90;;;6.05;;
64653;SDS011;51065;48.884;12.598;2024-02-28T13:21:35;17.38;;;7.35;;
64653;SDS011;51065;48.884;12.598;2024-02-28T13:24:01;15.25;;;6.47;;
64653;SDS011;51065;48.884;12.598;2024-02-28T13:26:28;17.95;;;7.78;;
64653;SDS011;51065;48.884;12.598;2024-02-28T13:28:54;17.85;;;7.50;;
64653;SDS011;51065;48.884;12.598;2024-02-28T13:31:22;17.35;;;6.72;;
64653;SDS011;51065;48.884;12.598;2024-02-28T13:33:48;17.50;;;7.00;;
64653;SDS011;51065;48.884;12.598;2024-02-28T13:36:13;16.52;;;6.82;;
64653;SDS011;51065;48.884;12.598;2024-02-28T13:38:39;17.20;;;6.65;;
64653;SDS011;51065;48.884;12.598;2024-02-28T13:41:04;15.02;;;6.65;;
64653;SDS011;51065;48.884;12.598;2024-02-28T13:43:30;15.00;;;6.18;;
64653;SDS011;51065;48.884;12.598;2024-02-28T13:45:56;17.33;;;6.80;;
64653;SDS011;51065;48.884;12.598;2024-02-28T13:48:25;15.52;;;6.53;;
64653;SDS011;51065;48.884;12.598;2024-02-28T13:50:53;16.52;;;6.80;;
64653;SDS011;51065;48.884;12.598;2024-02-28T13:53:19;14.68;;;6.18;;
64653;SDS011;51065;48.884;12.598;2024-02-28T13:55:45;17.85;;;6.70;;
64653;SDS011;51065;48.884;12.598;2024-02-28T13:58:11;16.23;;;6.28;;
64653;SDS011;51065;48.884;12.598;2024-02-28T14:00:37;16.92;;;7.18;;
64653;SDS011;51065;48.884;12.598;2024-02-28T14:03:04;16.85;;;6.45;;
64653;SDS011;51065;48.884;12.598;2024-02-28T14:05:31;16.63;;;7.05;;
64653;SDS011;51065;48.884;12.598;2024-02-28T14:07:57;15.25;;;5.70;;
64653;SDS011;51065;48.884;12.598;2024-02-28T14:10:23;15.48;;;6.35;;
64653;SDS011;51065;48.884;12.598;2024-02-28T14:12:49;15.93;;;6.40;;
64653;SDS011;51065;48.884;12.598;2024-02-28T14:15:17;17.02;;;6.82;;